Time;durP1;ratioP1;P1;durP2;ratioP2;P2;SDS_P1;SDS_P2;PMS_P1;PMS_P2;Temp;Humidity;BMP_temperature;BMP_pressure;BME280_temperature;BME280_humidity;BME280_pressure;Samples;Min_cycle;Max_cycle;Signal;HPM_P1;HPM_P2
2023/02/11 00:00:28;;;;;;;;;;;;;;;-2.60;73.93;99679.13;5011862;28;19929;-67
2023/02/11 00:02:53;;;;;;;;;;;;;;;-2.64;74.19;99688.56;5009775;28;19976;-67
2023/02/11 00:05:19;;;;;;;;;;;;;;;-2.70;74.24;99689.34;5011146;28;20418;-68
2023/02/11 00:07:45;;;;;;;;;;;;;;;-2.73;74.68;99685.19;5005197;28;19933;-67
2023/02/11 00:10:12;;;;;;;;;;;;;;;-2.81;74.72;99684.47;5015014;28;19936;-67
2023/02/11 00:12:38;;;;;;;;;;;;;;;-2.85;75.07;99684.00;5010808;28;19975;-67
2023/02/11 00:15:05;;;;;;;;;;;;;;;-2.90;75.03;99678.41;5012010;28;19929;-67
2023/02/11 00:17:30;;;;;;;;;;;;;;;-2.82;75.04;99690.84;5011488;28;19929;-67
2023/02/11 00:19:56;;;;;;;;;;;;;;;-2.89;75.14;99686.25;5029844;28;20047;-67
2023/02/11 00:22:22;;;;;;;;;;;;;;;-2.93;75.42;99676.13;5014228;28;20400;-67
2023/02/11 00:24:48;;;;;;;;;;;;;;;-3.02;75.78;99684.25;5007673;28;19929;-67
2023/02/11 00:27:15;;;;;;;;;;;;;;;-3.07;75.96;99697.38;5005467;28;20080;-68
2023/02/11 00:29:41;;;;;;;;;;;;;;;-3.13;76.09;99688.25;5011876;28;19930;-67
2023/02/11 00:32:07;;;;;;;;;;;;;;;-3.24;76.34;99688.72;5003617;28;20188;-69
2023/02/11 00:34:33;;;;;;;;;;;;;;;-3.30;76.60;99687.63;5002441;28;19979;-67
2023/02/11 00:37:01;;;;;;;;;;;;;;;-3.43;76.69;99676.78;5015018;28;20324;-67
2023/02/11 00:39:27;;;;;;;;;;;;;;;-3.58;76.91;99655.38;5009788;28;19940;-68
2023/02/11 00:41:52;;;;;;;;;;;;;;;-3.39;76.90;99691.44;5010866;28;19983;-67
2023/02/11 00:44:20;;;;;;;;;;;;;;;-3.37;77.21;99689.38;5010329;28;19929;-67
2023/02/11 00:46:46;;;;;;;;;;;;;;;-3.45;77.11;99692.16;5014439;28;19929;-67
2023/02/11 00:49:12;;;;;;;;;;;;;;;-3.46;77.44;99695.84;5009852;28;20404;-68
2023/02/11 00:51:38;;;;;;;;;;;;;;;-3.53;77.52;99693.06;5008726;28;19929;-67
2023/02/11 00:54:04;;;;;;;;;;;;;;;-3.53;77.78;99689.59;5009012;28;20340;-68
2023/02/11 00:56:30;;;;;;;;;;;;;;;-3.54;77.70;99687.94;5010616;28;19929;-68
2023/02/11 00:58:55;;;;;;;;;;;;;;;-3.59;77.99;99701.84;5008095;28;20297;-67
2023/02/11 01:01:22;;;;;;;;;;;;;;;-3.54;77.81;99715.47;5011634;28;20355;-67
2023/02/11 01:03:48;;;;;;;;;;;;;;;-3.52;77.47;99726.00;5013684;28;19929;-66
2023/02/11 01:06:14;;;;;;;;;;;;;;;-3.49;77.38;99696.22;5016267;28;20035;-66
2023/02/11 01:08:40;;;;;;;;;;;;;;;-3.52;77.11;99701.94;5010216;28;20693;-66
2023/02/11 01:11:10;;;;;;;;;;;;;;;-3.54;77.36;99709.31;5012945;28;20482;-66
2023/02/11 01:13:36;;;;;;;;;;;;;;;-3.59;77.14;99710.72;5010662;28;19934;-66
2023/02/11 01:16:02;;;;;;;;;;;;;;;-3.61;77.25;99710.03;5003112;28;20203;-66
2023/02/11 01:18:30;;;;;;;;;;;;;;;-3.55;77.03;99716.50;5013725;28;19935;-67
2023/02/11 01:20:55;;;;;;;;;;;;;;;-3.57;77.13;99711.34;5009776;28;19965;-68
2023/02/11 01:23:22;;;;;;;;;;;;;;;-3.68;77.27;99709.13;5023219;28;19979;-67
2023/02/11 01:25:48;;;;;;;;;;;;;;;-3.72;77.41;99711.34;5011356;28;19929;-68
2023/02/11 01:28:15;;;;;;;;;;;;;;;-3.69;77.59;99718.16;5006972;28;19937;-67
2023/02/11 01:30:40;;;;;;;;;;;;;;;-3.73;77.33;99725.72;5009813;28;20360;-67
2023/02/11 01:33:06;;;;;;;;;;;;;;;-3.76;77.88;99726.06;5014602;28;19969;-67
2023/02/11 01:35:33;;;;;;;;;;;;;;;-3.72;77.52;99731.91;5017847;28;20035;-67
2023/02/11 01:37:59;;;;;;;;;;;;;;;-3.76;77.50;99727.91;4983729;28;20021;-68
2023/02/11 01:40:25;;;;;;;;;;;;;;;-3.71;77.26;99730.88;5003100;28;20027;-67
2023/02/11 01:42:50;;;;;;;;;;;;;;;-3.73;76.87;99725.72;5003092;28;19937;-68
2023/02/11 01:45:34;;;;;;;;;;;;;;;-3.76;76.99;99725.25;5014013;28;19937;-68
2023/02/11 01:48:01;;;;;;;;;;;;;;;-3.80;77.05;99734.63;5012963;28;19925;-67
2023/02/11 01:50:27;;;;;;;;;;;;;;;-3.80;76.89;99726.63;5012676;28;20016;-68
2023/02/11 01:57:20;;;;;;;;;;;;;;;-3.85;77.16;99733.34;5007422;28;20032;-68
2023/02/11 01:58:25;;;;;;;;;;;;;;;-3.78;76.54;99720.09;5009808;28;19929;-67
2023/02/11 02:00:51;;;;;;;;;;;;;;;-3.76;76.27;99726.06;5012237;28;20347;-68
2023/02/11 02:03:21;;;;;;;;;;;;;;;-3.79;76.24;99722.94;5005466;28;20225;-68
2023/02/11 02:05:50;;;;;;;;;;;;;;;-3.82;75.89;99726.81;5005079;28;19968;-68
2023/02/11 02:08:20;;;;;;;;;;;;;;;-3.92;75.99;99703.00;5012500;28;20421;-67
2023/02/11 02:10:48;;;;;;;;;;;;;;;-3.95;75.90;99705.25;5014635;28;19929;-66
2023/02/11 02:13:16;;;;;;;;;;;;;;;-3.81;75.56;99709.78;5016853;28;19956;-68
2023/02/11 02:15:46;;;;;;;;;;;;;;;-3.63;74.57;99714.75;5016266;28;20031;-68
2023/02/11 02:18:18;;;;;;;;;;;;;;;-3.50;74.04;99708.78;5019893;28;19932;-68
2023/02/11 02:21:11;;;;;;;;;;;;;;;-3.37;73.27;99715.28;5005398;28;20404;-68
2023/02/11 02:23:49;;;;;;;;;;;;;;;-3.25;72.09;99710.31;5014447;28;20020;-68
2023/02/11 02:26:48;;;;;;;;;;;;;;;-3.20;71.42;99718.59;5006857;28;20381;-67
2023/02/11 02:29:34;;;;;;;;;;;;;;;-3.08;70.21;99732.31;5015563;28;19929;-67
2023/02/11 02:32:19;;;;;;;;;;;;;;;-2.96;69.45;99720.13;4988851;28;19934;-67
2023/02/11 02:34:48;;;;;;;;;;;;;;;-2.85;68.92;99716.13;5015977;28;19986;-66
2023/02/11 02:37:19;;;;;;;;;;;;;;;-2.77;68.17;99724.06;5029156;28;19936;-66
2023/02/11 02:39:46;;;;;;;;;;;;;;;-2.73;68.23;99741.41;5013925;28;19929;-66
2023/02/11 02:42:13;;;;;;;;;;;;;;;-2.74;68.30;99737.06;5013292;28;19933;-66
2023/02/11 02:44:39;;;;;;;;;;;;;;;-2.73;68.91;99724.53;5007348;28;19936;-66
2023/02/11 02:47:04;;;;;;;;;;;;;;;-2.77;69.18;99731.25;5014741;28;19929;-66
2023/02/11 02:49:30;;;;;;;;;;;;;;;-2.78;69.49;99725.06;5010261;28;19933;-66
2023/02/11 02:52:06;;;;;;;;;;;;;;;-2.79;69.81;99715.41;5020790;28;19935;-66
2023/02/11 02:54:45;;;;;;;;;;;;;;;-2.78;70.19;99735.78;5017046;28;19930;-66
2023/02/11 02:57:17;;;;;;;;;;;;;;;-2.77;70.10;99725.91;5017108;28;19929;-67
2023/02/11 02:59:51;;;;;;;;;;;;;;;-2.81;70.25;99721.94;5011816;28;19929;-67
2023/02/11 03:02:22;;;;;;;;;;;;;;;-2.80;69.81;99737.81;5005857;28;19929;-66
2023/02/11 03:04:52;;;;;;;;;;;;;;;-2.81;69.81;99729.97;5019013;28;19933;-66
2023/02/11 03:07:25;;;;;;;;;;;;;;;-2.85;70.06;99718.81;5021337;28;20023;-66
2023/02/11 03:09:54;;;;;;;;;;;;;;;-2.82;69.91;99722.97;5013899;28;19929;-66
2023/02/11 03:12:20;;;;;;;;;;;;;;;-2.79;69.52;99720.75;5009646;28;19936;-66
2023/02/11 03:14:49;;;;;;;;;;;;;;;-2.80;69.60;99721.78;5014003;28;20032;-66
2023/02/11 03:17:15;;;;;;;;;;;;;;;-2.78;69.38;99746.50;5010384;28;19936;-67
2023/02/11 03:19:42;;;;;;;;;;;;;;;-2.87;69.59;99724.38;5028146;28;20419;-66
2023/02/11 03:22:12;;;;;;;;;;;;;;;-2.89;69.79;99731.75;5006579;28;19929;-67
2023/02/11 03:24:40;;;;;;;;;;;;;;;-2.97;70.02;99720.31;5013455;28;19929;-67
2023/02/11 03:27:08;;;;;;;;;;;;;;;-3.04;69.98;99713.03;5009444;28;19951;-67
2023/02/11 03:29:35;;;;;;;;;;;;;;;-3.06;70.42;99719.59;5008429;28;19967;-66
2023/02/11 03:32:06;;;;;;;;;;;;;;;-3.06;69.65;99722.25;5018493;28;19967;-66
2023/02/11 03:34:34;;;;;;;;;;;;;;;-3.17;69.88;99699.50;5007911;28;20020;-67
2023/02/11 03:37:03;;;;;;;;;;;;;;;-3.11;70.03;99706.81;5012683;28;19933;-68
2023/02/11 03:39:30;;;;;;;;;;;;;;;-3.19;70.19;99701.53;5017744;28;20028;-67
2023/02/11 03:41:58;;;;;;;;;;;;;;;-3.23;70.51;99701.06;5013787;28;19930;-68
2023/02/11 03:44:27;;;;;;;;;;;;;;;-3.32;70.87;99704.88;5014366;28;20363;-67
2023/02/11 03:46:53;;;;;;;;;;;;;;;-3.40;70.89;99699.63;5007513;28;19929;-68
2023/02/11 03:49:20;;;;;;;;;;;;;;;-3.43;71.10;99707.00;5027906;28;19929;-67
2023/02/11 03:51:48;;;;;;;;;;;;;;;-3.45;71.46;99708.19;5018620;28;19930;-67
2023/02/11 03:54:17;;;;;;;;;;;;;;;-3.53;71.94;99710.97;5021832;28;20343;-67
2023/02/11 03:56:47;;;;;;;;;;;;;;;-3.62;72.14;99710.25;5013739;28;19929;-66
2023/02/11 03:59:15;;;;;;;;;;;;;;;-3.60;72.20;99714.38;5017088;28;19929;-67
2023/02/11 04:01:40;;;;;;;;;;;;;;;-3.62;72.10;99702.22;5014666;28;19933;-66
2023/02/11 04:04:06;;;;;;;;;;;;;;;-3.70;72.23;99711.97;5016352;28;20319;-66
2023/02/11 04:06:32;;;;;;;;;;;;;;;-3.77;72.86;99715.56;4996180;28;19984;-66
2023/02/11 04:08:58;;;;;;;;;;;;;;;-3.80;72.72;99699.91;5015530;28;19940;-67
2023/02/11 04:11:23;;;;;;;;;;;;;;;-3.87;73.30;99700.66;5011696;28;19936;-66
2023/02/11 04:13:49;;;;;;;;;;;;;;;-3.93;73.34;99708.56;5007798;28;20454;-67
2023/02/11 04:16:16;;;;;;;;;;;;;;;-3.97;73.40;99697.41;4994881;28;19949;-67
2023/02/11 04:18:42;;;;;;;;;;;;;;;-4.01;73.83;99698.78;5016547;28;19929;-67
2023/02/11 04:21:08;;;;;;;;;;;;;;;-4.04;74.04;99707.16;5012908;28;19929;-67
2023/02/11 04:23:34;;;;;;;;;;;;;;;-4.03;74.17;99706.16;5015634;28;20312;-67
2023/02/11 04:25:59;;;;;;;;;;;;;;;-4.07;74.16;99707.50;5011295;28;19987;-66
2023/02/11 04:28:28;;;;;;;;;;;;;;;-4.07;73.90;99702.16;5016074;28;19983;-67
2023/02/11 04:30:54;;;;;;;;;;;;;;;-4.16;74.28;99691.56;5017984;28;19929;-66
2023/02/11 04:33:21;;;;;;;;;;;;;;;-4.21;74.31;99698.47;5010029;28;19929;-66
2023/02/11 04:35:47;;;;;;;;;;;;;;;-4.24;74.42;99701.50;5013449;28;19934;-67
2023/02/11 04:38:13;;;;;;;;;;;;;;;-4.18;73.97;99692.75;5014837;28;20396;-67
2023/02/11 04:40:39;;;;;;;;;;;;;;;-4.22;74.24;99710.97;5018457;28;19965;-66
2023/02/11 04:43:05;;;;;;;;;;;;;;;-4.29;74.31;99694.00;5011479;28;19936;-66
2023/02/11 04:45:30;;;;;;;;;;;;;;;-4.30;74.52;99709.19;5009218;28;20312;-66
2023/02/11 04:47:56;;;;;;;;;;;;;;;-4.28;74.42;99691.19;5017132;28;19929;-66
2023/02/11 04:50:23;;;;;;;;;;;;;;;-4.32;74.43;99692.53;5018459;28;20293;-66
2023/02/11 04:52:49;;;;;;;;;;;;;;;-4.33;74.31;99693.53;5013363;28;19974;-66
2023/02/11 04:55:15;;;;;;;;;;;;;;;-4.44;74.64;99692.13;5012491;28;19973;-67
2023/02/11 04:57:40;;;;;;;;;;;;;;;-4.48;75.06;99701.50;5012701;28;19980;-67
2023/02/11 05:00:08;;;;;;;;;;;;;;;-4.47;74.96;99702.31;5036240;28;19929;-67
2023/02/11 05:02:34;;;;;;;;;;;;;;;-4.47;75.06;99699.66;5010918;28;19936;-67
2023/02/11 05:05:00;;;;;;;;;;;;;;;-4.45;74.84;99706.50;5013314;28;19929;-67
2023/02/11 05:07:27;;;;;;;;;;;;;;;-4.46;74.96;99720.84;5014982;28;20355;-66
2023/02/11 05:09:53;;;;;;;;;;;;;;;-4.38;74.77;99695.09;5015240;28;19933;-67
2023/02/11 05:12:18;;;;;;;;;;;;;;;-4.37;74.36;99710.09;5018021;28;20427;-67
2023/02/11 05:14:44;;;;;;;;;;;;;;;-4.32;74.25;99702.38;5012944;28;19935;-66
2023/02/11 05:17:10;;;;;;;;;;;;;;;-4.29;74.09;99700.19;5001704;28;19929;-66
2023/02/11 05:19:35;;;;;;;;;;;;;;;-4.30;74.09;99703.84;5018986;28;19948;-67
2023/02/11 05:22:01;;;;;;;;;;;;;;;-4.23;73.85;99697.81;5017800;28;20346;-67
2023/02/11 05:24:28;;;;;;;;;;;;;;;-4.18;73.71;99690.91;5019518;28;19929;-66
2023/02/11 05:26:54;;;;;;;;;;;;;;;-4.07;73.43;99688.81;5016945;28;20059;-67
2023/02/11 05:29:20;;;;;;;;;;;;;;;-3.94;72.75;99697.03;5012947;28;20112;-67
2023/02/11 05:31:46;;;;;;;;;;;;;;;-3.82;72.74;99696.59;5012304;28;19936;-66
2023/02/11 05:34:11;;;;;;;;;;;;;;;-3.71;71.90;99706.81;5014543;28;19933;-67
2023/02/11 05:36:37;;;;;;;;;;;;;;;-3.63;71.47;99704.06;5011255;28;19929;-67
2023/02/11 05:39:03;;;;;;;;;;;;;;;-3.59;71.36;99715.22;5014366;28;19929;-67
2023/02/11 05:41:30;;;;;;;;;;;;;;;-3.59;71.16;99693.81;5014709;28;19933;-69
2023/02/11 05:43:55;;;;;;;;;;;;;;;-3.63;71.19;99679.19;5021919;28;19929;-68
2023/02/11 05:46:21;;;;;;;;;;;;;;;-3.66;71.04;99688.38;5019318;28;19929;-67
2023/02/11 05:48:47;;;;;;;;;;;;;;;-3.66;71.29;99704.44;5017066;28;20408;-67
2023/02/11 05:51:13;;;;;;;;;;;;;;;-3.65;71.35;99690.03;5016958;28;19929;-67
2023/02/11 05:53:38;;;;;;;;;;;;;;;-3.59;71.47;99689.31;5029201;28;19933;-67
2023/02/11 05:56:04;;;;;;;;;;;;;;;-3.50;70.93;99698.09;5019645;28;20063;-67
2023/02/11 05:58:32;;;;;;;;;;;;;;;-3.52;70.88;99701.94;5015647;28;20396;-66
2023/02/11 06:00:58;;;;;;;;;;;;;;;-3.52;70.87;99709.97;5016330;28;19936;-67
2023/02/11 06:03:23;;;;;;;;;;;;;;;-3.53;71.01;99694.94;5010631;28;19929;-67
2023/02/11 06:05:50;;;;;;;;;;;;;;;-3.49;70.85;99706.91;5009947;28;19933;-66
2023/02/11 06:08:16;;;;;;;;;;;;;;;-3.50;71.18;99695.41;5017657;28;19929;-67
2023/02/11 06:10:43;;;;;;;;;;;;;;;-3.44;70.89;99708.03;5011639;28;19929;-67
2023/02/11 06:13:09;;;;;;;;;;;;;;;-3.48;70.95;99700.56;5016655;28;20619;-68
2023/02/11 06:15:36;;;;;;;;;;;;;;;-3.49;71.09;99693.53;5018114;28;19936;-69
2023/02/11 06:18:02;;;;;;;;;;;;;;;-3.47;71.11;99696.84;5020214;28;19945;-67
2023/02/11 06:20:28;;;;;;;;;;;;;;;-3.40;71.40;99695.13;5008899;28;19936;-67
2023/02/11 06:22:54;;;;;;;;;;;;;;;-3.26;70.68;99706.00;5009589;28;19976;-67
2023/02/11 06:25:20;;;;;;;;;;;;;;;-3.39;71.12;99699.44;5011011;28;19968;-68
2023/02/11 06:27:45;;;;;;;;;;;;;;;-3.34;71.42;99699.72;5017172;28;19937;-66
2023/02/11 06:30:11;;;;;;;;;;;;;;;-3.32;71.46;99699.53;5018697;28;19936;-67
2023/02/11 06:32:39;;;;;;;;;;;;;;;-3.36;70.96;99679.50;5012556;28;19936;-67
2023/02/11 06:35:04;;;;;;;;;;;;;;;-3.37;71.57;99693.91;5011143;28;19933;-67
2023/02/11 06:37:30;;;;;;;;;;;;;;;-3.22;71.05;99701.91;5013336;28;19929;-67
2023/02/11 06:39:56;;;;;;;;;;;;;;;-3.36;71.04;99700.91;5011951;28;19936;-67
2023/02/11 06:42:22;;;;;;;;;;;;;;;-3.39;71.26;99691.44;5008659;28;20387;-68
2023/02/11 06:44:47;;;;;;;;;;;;;;;-3.38;71.35;99700.25;5034257;28;20395;-67
2023/02/11 06:47:13;;;;;;;;;;;;;;;-3.40;71.35;99684.44;5013033;28;19929;-67
2023/02/11 06:49:40;;;;;;;;;;;;;;;-3.33;71.45;99684.50;5013535;28;20320;-68
2023/02/11 06:52:06;;;;;;;;;;;;;;;-3.35;71.30;99689.22;5005457;28;19940;-68
2023/02/11 06:54:31;;;;;;;;;;;;;;;-3.42;71.30;99687.28;5013536;28;19929;-68
2023/02/11 06:56:57;;;;;;;;;;;;;;;-3.54;71.14;99699.44;5014058;28;19983;-68
2023/02/11 06:59:23;;;;;;;;;;;;;;;-3.60;71.77;99702.88;5013759;28;20422;-68
2023/02/11 07:01:48;;;;;;;;;;;;;;;-3.49;71.75;99697.06;5019557;28;19956;-68
2023/02/11 07:04:14;;;;;;;;;;;;;;;-3.38;71.41;99694.91;4316630;28;10000513;-67
2023/02/11 07:06:41;;;;;;;;;;;;;;;-3.29;70.81;99694.63;5011941;28;19929;-67
2023/02/11 07:09:07;;;;;;;;;;;;;;;-3.34;70.87;99682.84;5008470;28;20028;-67
2023/02/11 07:11:33;;;;;;;;;;;;;;;-3.37;71.36;99688.56;5002805;28;20039;-67
2023/02/11 07:14:00;;;;;;;;;;;;;;;-3.40;71.33;99687.09;5009683;28;19929;-67
2023/02/11 07:16:25;;;;;;;;;;;;;;;-3.50;71.43;99694.56;5017422;28;19929;-67
2023/02/11 07:18:51;;;;;;;;;;;;;;;-3.56;72.02;99694.28;5009497;28;20429;-67
2023/02/11 07:21:18;;;;;;;;;;;;;;;-3.48;72.02;99692.53;5009512;28;20094;-67
2023/02/11 07:23:45;;;;;;;;;;;;;;;-3.41;71.74;99698.81;5011580;28;19937;-68
2023/02/11 07:26:13;;;;;;;;;;;;;;;-3.33;71.80;99692.53;5020623;28;19979;-68
2023/02/11 07:28:39;;;;;;;;;;;;;;;-3.09;71.27;99688.72;5013239;28;19929;-67
2023/02/11 07:31:06;;;;;;;;;;;;;;;-2.99;70.63;99693.75;5010990;28;20397;-66
2023/02/11 07:33:32;;;;;;;;;;;;;;;-3.02;70.56;99684.25;5010401;28;19933;-71
2023/02/11 07:35:59;;;;;;;;;;;;;;;-3.06;70.81;99684.81;5011123;28;20355;-67
2023/02/11 07:38:24;;;;;;;;;;;;;;;-3.17;70.58;99696.81;5008327;28;19930;-66
2023/02/11 07:40:51;;;;;;;;;;;;;;;-3.25;70.80;99691.59;5013581;28;20276;-67
2023/02/11 07:43:17;;;;;;;;;;;;;;;-3.17;70.80;99695.00;5013829;28;19935;-67
2023/02/11 07:45:43;;;;;;;;;;;;;;;-3.06;70.61;99682.97;5013722;28;20027;-66
2023/02/11 07:48:08;;;;;;;;;;;;;;;-2.85;69.89;99686.69;5002402;28;19940;-67
2023/02/11 07:50:34;;;;;;;;;;;;;;;-2.77;69.45;99677.72;5011125;28;19990;-66
2023/02/11 07:53:00;;;;;;;;;;;;;;;-2.76;69.29;99692.75;5006253;28;19936;-67
2023/02/11 07:55:26;;;;;;;;;;;;;;;-2.78;69.29;99681.41;5012908;28;20363;-67
2023/02/11 07:57:53;;;;;;;;;;;;;;;-2.69;68.71;99677.59;5003459;28;19929;-67
2023/02/11 08:00:19;;;;;;;;;;;;;;;-2.63;68.16;99673.34;5009950;28;19972;-67
2023/02/11 08:02:45;;;;;;;;;;;;;;;-2.62;68.62;99683.03;5012594;28;20426;-66
2023/02/11 08:05:11;;;;;;;;;;;;;;;-2.44;68.50;99678.03;5010568;28;20399;-67
2023/02/11 08:07:36;;;;;;;;;;;;;;;-2.35;67.38;99673.38;5006788;28;19929;-67
2023/02/11 08:10:03;;;;;;;;;;;;;;;-2.27;67.51;99677.78;5005644;28;19929;-66
2023/02/11 08:12:29;;;;;;;;;;;;;;;-2.32;67.26;99667.63;5001572;28;19975;-67
2023/02/11 08:14:56;;;;;;;;;;;;;;;-2.23;67.14;99671.00;5010326;28;19929;-67
2023/02/11 08:17:22;;;;;;;;;;;;;;;-2.17;67.04;99662.19;5011676;28;20032;-67
2023/02/11 08:19:47;;;;;;;;;;;;;;;-2.07;67.09;99667.22;5012071;28;20031;-67
2023/02/11 08:22:13;;;;;;;;;;;;;;;-2.05;66.17;99686.59;5013352;28;20016;-67
2023/02/11 08:24:39;;;;;;;;;;;;;;;-2.15;66.00;99668.19;5015110;28;19975;-67
2023/02/11 08:27:05;;;;;;;;;;;;;;;-2.08;65.75;99662.03;5014610;28;19929;-67
2023/02/11 08:29:30;;;;;;;;;;;;;;;-2.01;65.78;99660.25;5007334;28;20020;-67
2023/02/11 08:31:58;;;;;;;;;;;;;;;-1.89;65.65;99658.66;5024005;28;20454;-67
2023/02/11 08:34:23;;;;;;;;;;;;;;;-1.80;64.84;99653.16;5018281;28;19929;-67
2023/02/11 08:36:49;;;;;;;;;;;;;;;-1.93;64.79;99651.22;5007947;28;20320;-68
2023/02/11 08:39:16;;;;;;;;;;;;;;;-1.98;64.51;99659.00;5015548;28;19929;-67
2023/02/11 08:41:42;;;;;;;;;;;;;;;-2.11;65.11;99647.16;5019094;28;19939;-67
2023/02/11 08:44:08;;;;;;;;;;;;;;;-2.01;65.19;99647.66;5010486;28;19936;-67
2023/02/11 08:46:34;;;;;;;;;;;;;;;-1.88;65.08;99630.00;5008376;28;19930;-67
2023/02/11 08:49:02;;;;;;;;;;;;;;;-1.82;65.15;99631.09;5007258;28;20472;-67
2023/02/11 08:51:31;;;;;;;;;;;;;;;-1.80;64.95;99621.81;5018316;28;19976;-68
2023/02/11 08:53:57;;;;;;;;;;;;;;;-1.89;64.56;99620.31;5009957;28;19929;-68
2023/02/11 08:56:23;;;;;;;;;;;;;;;-1.98;64.90;99616.97;5020790;28;19936;-68
2023/02/11 08:58:49;;;;;;;;;;;;;;;-2.02;64.94;99619.22;5011396;28;19933;-68
2023/02/11 09:01:17;;;;;;;;;;;;;;;-2.04;64.83;99610.53;5010402;28;20439;-68
2023/02/11 09:03:43;;;;;;;;;;;;;;;-2.08;65.24;99606.59;5021458;28;19929;-68
2023/02/11 09:06:11;;;;;;;;;;;;;;;-2.10;65.13;99605.97;5018475;28;19933;-68
2023/02/11 09:08:38;;;;;;;;;;;;;;;-2.14;65.21;99596.66;5011287;28;19929;-68
2023/02/11 09:11:04;;;;;;;;;;;;;;;-2.19;65.47;99596.44;5034621;28;20015;-68
2023/02/11 09:13:30;;;;;;;;;;;;;;;-2.23;65.73;99574.56;4666631;28;10000062;-67
2023/02/11 09:15:56;;;;;;;;;;;;;;;-2.31;66.20;99564.00;5019532;28;19933;-67
2023/02/11 09:18:22;;;;;;;;;;;;;;;-2.20;66.31;99565.31;5023579;28;19933;-68
2023/02/11 09:20:47;;;;;;;;;;;;;;;-2.22;65.99;99556.66;5010128;28;19964;-68
2023/02/11 09:23:16;;;;;;;;;;;;;;;-2.16;65.91;99543.28;5013389;28;20463;-67
2023/02/11 09:25:42;;;;;;;;;;;;;;;-2.10;65.91;99536.31;5001748;28;19976;-67
2023/02/11 09:28:08;;;;;;;;;;;;;;;-2.21;66.34;99532.31;5017107;28;19965;-67
2023/02/11 09:30:35;;;;;;;;;;;;;;;-2.22;66.41;99544.06;5012985;28;19951;-67
2023/02/11 09:33:00;;;;;;;;;;;;;;;-2.33;66.73;99520.53;5005257;28;20411;-67
2023/02/11 09:35:26;;;;;;;;;;;;;;;-2.52;67.29;99514.81;5013819;28;20055;-67
2023/02/11 09:37:52;;;;;;;;;;;;;;;-2.55;67.92;99519.75;5008903;28;19933;-68
2023/02/11 09:40:20;;;;;;;;;;;;;;;-2.56;67.99;99513.56;5010888;28;20032;-68
2023/02/11 09:42:49;;;;;;;;;;;;;;;-2.55;68.63;99536.63;5025630;28;19956;-67
2023/02/11 09:45:17;;;;;;;;;;;;;;;-2.63;68.71;99508.16;5014414;28;19929;-67
2023/02/11 09:47:48;;;;;;;;;;;;;;;-2.73;69.04;99546.00;5003481;28;19952;-67
2023/02/11 09:50:17;;;;;;;;;;;;;;;-2.81;69.29;99510.50;5003908;28;20019;-67
2023/02/11 09:52:45;;;;;;;;;;;;;;;-2.81;69.60;99499.81;5008332;28;19984;-67
2023/02/11 09:55:17;;;;;;;;;;;;;;;-2.78;70.04;99521.66;5009906;28;19980;-68
2023/02/11 09:57:44;;;;;;;;;;;;;;;-2.83;70.31;99496.50;5006653;28;20412;-67
2023/02/11 10:00:17;;;;;;;;;;;;;;;-2.96;71.16;99498.03;5019979;28;19963;-67
2023/02/11 10:02:52;;;;;;;;;;;;;;;-2.96;71.49;99478.50;5017568;28;19936;-67
2023/02/11 10:05:30;;;;;;;;;;;;;;;-2.95;71.54;99497.03;5008835;28;19929;-67
2023/02/11 10:08:00;;;;;;;;;;;;;;;-2.93;71.82;99483.47;5023122;28;19929;-67
2023/02/11 10:10:36;;;;;;;;;;;;;;;-2.83;71.85;99483.94;5013540;28;20010;-67
2023/02/11 10:13:13;;;;;;;;;;;;;;;-2.84;71.90;99463.53;5016008;28;19929;-67
2023/02/11 10:15:43;;;;;;;;;;;;;;;-2.80;71.77;99472.03;5009412;28;19930;-67
2023/02/11 10:18:26;;;;;;;;;;;;;;;-2.76;71.82;99467.91;5013425;28;19933;-67
2023/02/11 10:21:02;;;;;;;;;;;;;;;-2.79;71.92;99469.16;5011801;28;19934;-67
2023/02/11 10:23:30;;;;;;;;;;;;;;;-2.69;71.83;99462.63;5013538;28;19933;-67
2023/02/11 10:25:56;;;;;;;;;;;;;;;-2.66;71.57;99454.19;5011076;28;19935;-66
2023/02/11 10:28:27;;;;;;;;;;;;;;;-2.73;71.83;99459.53;5034129;28;19933;-67
2023/02/11 10:30:56;;;;;;;;;;;;;;;-2.72;72.08;99453.97;5022916;28;19976;-66
2023/02/11 10:33:24;;;;;;;;;;;;;;;-2.67;71.84;99450.69;5041565;28;19935;-67
2023/02/11 10:35:50;;;;;;;;;;;;;;;-2.68;71.98;99432.97;5011451;28;19972;-67
2023/02/11 10:38:16;;;;;;;;;;;;;;;-2.71;72.18;99436.06;5015597;28;19965;-66
2023/02/11 10:40:41;;;;;;;;;;;;;;;-2.67;72.00;99429.28;5020483;28;19970;-67
2023/02/11 10:43:10;;;;;;;;;;;;;;;-2.69;72.03;99420.63;5016071;28;20308;-67
2023/02/11 10:45:40;;;;;;;;;;;;;;;-2.66;71.91;99422.06;5023055;28;20011;-67
2023/02/11 10:48:26;;;;;;;;;;;;;;;-2.61;71.96;99425.81;5016488;28;19929;-67
2023/02/11 10:51:05;;;;;;;;;;;;;;;-2.63;71.53;99435.88;5011019;28;19930;-66
2023/02/11 10:53:32;;;;;;;;;;;;;;;-2.63;71.41;99384.22;5020024;28;19936;-66
2023/02/11 10:55:58;;;;;;;;;;;;;;;-2.49;71.26;99395.78;5007471;28;19960;-67
2023/02/11 10:58:25;;;;;;;;;;;;;;;-2.48;70.88;99400.97;5017107;28;20024;-67
2023/02/11 11:00:54;;;;;;;;;;;;;;;-2.45;70.62;99395.22;5015335;28;19930;-67
2023/02/11 11:03:20;;;;;;;;;;;;;;;-2.43;70.37;99371.72;5012978;28;19937;-67
2023/02/11 11:05:48;;;;;;;;;;;;;;;-2.36;70.54;99362.88;5016630;28;19937;-67
2023/02/11 11:08:14;;;;;;;;;;;;;;;-2.23;69.65;99368.28;5017423;28;19933;-67
2023/02/11 11:10:42;;;;;;;;;;;;;;;-2.18;69.47;99357.81;5030961;28;20500;-66
2023/02/11 11:13:22;;;;;;;;;;;;;;;-2.17;69.68;99375.53;5017506;28;19936;-67
2023/02/11 11:16:05;;;;;;;;;;;;;;;-2.16;69.09;99346.88;5020351;28;19929;-67
2023/02/11 11:18:32;;;;;;;;;;;;;;;-2.19;68.86;99352.66;5017804;28;19929;-67
2023/02/11 11:20:59;;;;;;;;;;;;;;;-2.12;68.84;99349.97;5014082;28;19929;-68
2023/02/11 11:23:26;;;;;;;;;;;;;;;-2.03;68.13;99354.94;5019008;28;19976;-67
2023/02/11 11:26:00;;;;;;;;;;;;;;;-2.15;67.48;99354.72;5014611;28;20084;-67
2023/02/11 11:28:27;;;;;;;;;;;;;;;-2.19;67.44;99348.09;5021750;28;19988;-67
2023/02/11 11:30:54;;;;;;;;;;;;;;;-2.25;66.35;99314.09;5010716;28;20140;-67
2023/02/11 11:33:21;;;;;;;;;;;;;;;-2.30;66.57;99319.25;5011099;28;19936;-67
2023/02/11 11:36:00;;;;;;;;;;;;;;;-2.39;66.02;99326.63;5005152;28;20315;-67
2023/02/11 11:38:27;;;;;;;;;;;;;;;-2.50;66.51;99282.50;5005765;28;19983;-67
2023/02/11 11:41:11;;;;;;;;;;;;;;;-2.46;66.21;99310.53;5013548;28;19929;-67
2023/02/11 11:43:37;;;;;;;;;;;;;;;-2.57;66.83;99287.03;5012200;28;19925;-67
2023/02/11 11:46:05;;;;;;;;;;;;;;;-2.62;66.84;99292.16;5021037;28;19933;-67
2023/02/11 11:48:33;;;;;;;;;;;;;;;-2.61;66.70;99289.28;5013267;28;19930;-67
2023/02/11 11:51:02;;;;;;;;;;;;;;;-2.59;66.88;99305.16;5010094;28;20036;-67
2023/02/11 11:53:34;;;;;;;;;;;;;;;-2.63;66.92;99274.44;5009611;28;19935;-67
2023/02/11 11:56:02;;;;;;;;;;;;;;;-2.65;67.22;99274.66;5007691;28;20393;-67
2023/02/11 11:58:28;;;;;;;;;;;;;;;-2.62;67.35;99260.03;5018464;28;19952;-67
2023/02/11 12:00:59;;;;;;;;;;;;;;;-2.61;67.14;99262.50;5016868;28;19930;-67
2023/02/11 12:03:45;;;;;;;;;;;;;;;-2.64;67.20;99256.75;5020860;28;19937;-67
2023/02/11 12:06:38;;;;;;;;;;;;;;;-2.61;66.93;99289.28;4968098;28;19929;-67
2023/02/11 12:09:08;;;;;;;;;;;;;;;-2.74;67.39;99257.09;4970830;28;19933;-67
2023/02/11 12:11:37;;;;;;;;;;;;;;;-2.77;67.99;99239.63;4977852;28;20440;-68
2023/02/11 12:14:09;;;;;;;;;;;;;;;-2.69;67.82;99233.25;4972306;28;19937;-67
2023/02/11 12:16:37;;;;;;;;;;;;;;;-2.60;67.47;99244.59;4950601;28;19937;-68
2023/02/11 12:19:32;;;;;;;;;;;;;;;-2.60;67.46;99231.22;4974463;28;19930;-68
2023/02/11 12:22:04;;;;;;;;;;;;;;;-2.50;67.16;99241.53;4975038;28;19993;-67
2023/02/11 12:24:38;;;;;;;;;;;;;;;-2.51;66.60;99243.38;4965686;28;19930;-67
2023/02/11 12:27:12;;;;;;;;;;;;;;;-2.68;66.75;99226.03;4973648;28;19956;-67
2023/02/11 12:29:42;;;;;;;;;;;;;;;-2.72;66.71;99221.09;4966551;28;19957;-67
2023/02/11 12:32:13;;;;;;;;;;;;;;;-2.73;66.86;99238.19;4963503;28;19978;-67
2023/02/11 12:34:49;;;;;;;;;;;;;;;-2.71;67.04;99236.13;4976782;28;20444;-67
2023/02/11 12:37:23;;;;;;;;;;;;;;;-2.68;67.05;99209.97;4979002;28;20077;-67
2023/02/11 12:39:50;;;;;;;;;;;;;;;-2.71;67.33;99213.91;4965502;28;19934;-67
2023/02/11 12:45:22;;;;;;;;;;;;;;;-2.60;66.97;99209.78;5009883;28;19935;-67
2023/02/11 12:47:58;;;;;;;;;;;;;;;-2.66;66.98;99218.63;5021700;28;19929;-67
2023/02/11 12:50:28;;;;;;;;;;;;;;;-2.65;67.10;99206.91;5013831;28;19928;-67
2023/02/11 12:53:03;;;;;;;;;;;;;;;-2.61;67.32;99197.44;5020575;28;19929;-68
2023/02/11 12:55:35;;;;;;;;;;;;;;;-2.58;66.84;99197.03;5008792;28;19975;-67